Jyväskylä Airport

EFJY · Finlandia Centrale, Finlandia

Storia di METAR EFJY · Jyväskylä Airport

Di seguito sono riportati i METAR degli ultimi giorni. Seleziona un anno per sfogliare i METAR più vecchi, dall'anno 2007 in poi.

21 luglio 2024

Tempo Codice Tempo meteorologico Temp. Vista Base nuvolosa Vento METAR/SPECI
16:20
V
24 °C 10 km+ - 070° 070° 5 kt METAR EFJY 211320Z AUTO 07005KT 040V100 9999 FEW043 24/16 Q1014
15:50
V
23 °C 10 km+ - 060° 060° 10 kt METAR EFJY 211250Z AUTO 06010KT 010V080 9999 SCT033 23/15 Q1014
15:20
V
23 °C 10 km+ 4.400 ft 090° 090° 7 kt METAR EFJY 211220Z AUTO 09007KT 050V120 9999 FEW029 BKN044 //////CB 23/16 Q1014
14:50
V
23 °C 10 km+ - 100° 100° 4 kt METAR EFJY 211150Z AUTO 10004KT 040V210 9999 SCT026 23/17 Q1014
14:20
M
23 °C 10 km+ 2.600 ft 100° 100° 4 kt METAR EFJY 211120Z AUTO 10004KT 360V170 9999 BKN026 BKN033 23/17 Q1014
13:50
M
22 °C 10 km+ 2.600 ft 070° 070° 6 kt METAR EFJY 211050Z AUTO 07006KT 050V110 9999 BKN026 22/16 Q1014
13:20
M
22 °C 10 km+ 2.500 ft 100° 100° 5 kt METAR EFJY 211020Z AUTO 10005KT 060V140 9999 BKN025 22/16 Q1014
12:50
M
21 °C 10 km+ 2.300 ft 090° 090° 5 kt METAR EFJY 210950Z AUTO 09005KT 050V130 9999 BKN023 21/16 Q1014
12:20
M
21 °C 10 km+ 2.200 ft 060° 060° 5 kt METAR EFJY 210920Z AUTO 06005KT 350V150 9999 BKN022 21/16 Q1014
11:50
V
21 °C 10 km+ 3.600 ft 050° 050° 7 kt METAR EFJY 210850Z AUTO 05007KT 9999 SCT022 BKN036 21/16 Q1014
11:20
M
20 °C 10 km+ 2.000 ft 060° 060° 7 kt METAR EFJY 210820Z AUTO 06007KT 030V110 9999 BKN020 20/15 Q1014
10:50
M
19 °C 10 km+ 1.800 ft 020° 020° 6 kt METAR EFJY 210750Z AUTO 02006KT 350V080 9999 BKN018 BKN045 19/15 Q1014
10:20
M
19 °C 10 km+ 3.000 ft 040° 040° 4 kt METAR EFJY 210720Z AUTO 04004KT 350V090 9999 SCT016 BKN030 BKN047 19/15 Q1014
09:50
M
19 °C 10 km+ 1.400 ft 050° 050° 6 kt METAR EFJY 210650Z AUTO 05006KT 350V070 9999 BKN014 OVC050 19/15 Q1014
09:20
M
19 °C 10 km+ 1.500 ft 070° 070° 6 kt METAR EFJY 210620Z AUTO 07006KT 040V100 9999 BKN015 19/15 Q1014
08:50
M
18 °C 10 km+ 1.500 ft 070° 070° 5 kt METAR EFJY 210550Z AUTO 07005KT 040V100 9999 BKN015 18/14 Q1014
08:20
M
18 °C 10 km+ 1.300 ft 070° 070° 5 kt METAR EFJY 210520Z AUTO 07005KT 040V130 9999 BKN013 18/14 Q1014
07:50
M
17 °C 10 km+ 1.800 ft 030° 030° 4 kt METAR EFJY 210450Z AUTO 03004KT 9999 OVC018 17/15 Q1014
07:20
M
17 °C 10 km+ 1.600 ft 040° 040° 4 kt METAR EFJY 210420Z AUTO 04004KT 9999 OVC016 17/15 Q1014
06:50
M
16 °C 10 km+ 1.700 ft 030° 030° 5 kt METAR EFJY 210350Z AUTO 03005KT 9999 OVC017 16/15 Q1014
06:20
M
16 °C 10 km+ 1.700 ft 030° 030° 4 kt METAR EFJY 210320Z AUTO 03004KT 9999 OVC017 16/15 Q1014
05:50
M
16 °C 10 km+ 1.700 ft 030° 030° 4 kt METAR EFJY 210250Z AUTO 03004KT 9999 OVC017 16/15 Q1014
05:20
M
16 °C 10 km+ 1.800 ft 040° 040° 4 kt METAR EFJY 210220Z AUTO 04004KT 9999 OVC018 16/15 Q1014
04:50
M
16 °C 10 km+ 2.000 ft 030° 030° 4 kt METAR EFJY 210150Z AUTO 03004KT 9999 OVC020 16/15 Q1014
04:20
M
16 °C 10 km+ 1.900 ft 020° 020° 3 kt METAR EFJY 210120Z AUTO 02003KT 9999 OVC019 16/14 Q1014
03:50
M
16 °C 10 km+ 1.700 ft 030° 030° 4 kt METAR EFJY 210050Z AUTO 03004KT 9999 OVC017 16/15 Q1014
03:20
M
16 °C 10 km+ 1.800 ft 040° 040° 6 kt METAR EFJY 210020Z AUTO 04006KT 9999 OVC018 16/15 Q1014
02:50
I
16 °C 10 km+ 900 ft 070° 070° 4 kt METAR EFJY 202350Z AUTO 07004KT 040V100 9999 OVC009 16/15 Q1014
02:20
I
16 °C 10 km+ 800 ft 070° 070° 5 kt METAR EFJY 202320Z AUTO 07005KT 9999 OVC008 16/15 Q1014
01:50
M
16 °C 10 km+ 1.000 ft 070° 070° 4 kt METAR EFJY 202250Z AUTO 07004KT 040V110 9999 OVC010 16/15 Q1013
01:20
M
16 °C 10 km+ 2.200 ft 060° 060° 5 kt METAR EFJY 202220Z AUTO 06005KT 9999 FEW009 OVC022 16/15 Q1013
00:50
M
16 °C 10 km+ 1.000 ft 050° 050° 5 kt METAR EFJY 202150Z AUTO 05005KT 9999 OVC010 16/15 Q1014
00:20
M
16 °C 10 km+ 1.600 ft 050° 050° 5 kt METAR EFJY 202120Z AUTO 05005KT 9999 OVC016 16/15 Q1013

20 luglio 2024

Tempo Codice Tempo meteorologico Temp. Vista Base nuvolosa Vento METAR/SPECI
23:50
M
17 °C 10 km+ 1.100 ft 060° 060° 5 kt METAR EFJY 202050Z AUTO 06005KT 9999 OVC011 17/15 Q1013
23:20
M
17 °C 10 km+ 1.600 ft 040° 040° 5 kt METAR EFJY 202020Z AUTO 04005KT 9999 OVC016 17/15 Q1013
22:50
M
17 °C 10 km+ 1.500 ft 040° 040° 7 kt METAR EFJY 201950Z AUTO 04007KT 9999 OVC015 17/15 Q1013
22:20
M
17 °C 10 km+ 1.600 ft 040° 040° 7 kt METAR EFJY 201920Z AUTO 04007KT 9999 OVC016 17/15 Q1013
21:50
M
18 °C 10 km+ 2.200 ft 050° 050° 7 kt METAR EFJY 201850Z AUTO 05007KT 9999 OVC022 18/15 Q1013
21:20
M
18 °C 10 km+ 2.100 ft 030° 030° 8 kt METAR EFJY 201820Z AUTO 03008KT 9999 OVC021 //////CB 18/15 Q1013
20:50
M
18 °C 10 km+ 2.000 ft 050° 050° 8 kt METAR EFJY 201750Z AUTO 05008KT 010V070 9999 BKN020 18/15 Q1012
20:20
M
18 °C 10 km+ 1.800 ft 040° 040° 8 kt METAR EFJY 201720Z AUTO 04008KT 010V070 9999 BKN018 18/15 Q1012
19:50
M
18 °C 10 km+ 1.800 ft 030° 030° 9 kt METAR EFJY 201650Z AUTO 03009KT 9999 BKN018 //////CB 18/16 Q1012
19:20
M
19 °C 10 km+ 1.800 ft 030° 030° 6 kt METAR EFJY 201620Z AUTO 03006KT 360V060 9999 BKN018 //////CB 19/16 Q1012
18:50
M
19 °C 10 km+ 1.300 ft 030° 030° 8 kt METAR EFJY 201550Z AUTO 03008KT 360V060 9999 BKN013 //////CB 19/17 Q1012
18:20
V
20 °C 10 km+ - 020° 020° 5 kt METAR EFJY 201520Z AUTO 02005KT 320V060 9999 //////CB 20/17 Q1011
17:50
V
20 °C 10 km+ - 350° 350° 5 kt METAR EFJY 201450Z AUTO 35005KT 9999 //////CB 20/18 Q1011
17:20
V
20 °C 10 km+ - 030° 030° 5 kt METAR EFJY 201420Z AUTO 03005KT 340V080 9999 FEW013 //////CB 20/18 Q1011
16:50
V
19 °C 10 km+ - 020° 020° 6 kt METAR EFJY 201350Z AUTO 02006KT 9999 -SHRA FEW031 //////CB 19/17 Q1011
16:20
M
18 °C 10 km+ 2.500 ft 070° 070° 10 kt METAR EFJY 201320Z AUTO 07010KT 9999 +SHRA BKN025 //////CB 18/17 Q1011
15:50
V
21 °C 10 km+ - 360° 360° 4 kt METAR EFJY 201250Z AUTO 36004KT 310V040 9999 TS FEW030 //////CB 21/16 Q1011
15:20
M
21 °C 10 km+ 2.900 ft 010° 010° 10 kt METAR EFJY 201220Z AUTO 01010KT 350V050 9999 -SHRA BKN029 //////CB 21/16 Q1011
14:50
V
24 °C 10 km+ - Var Var 4 kt METAR EFJY 201150Z AUTO VRB04KT 9999 FEW026 //////CB 24/16 Q1011
14:20
M
21 °C 10 km+ 2.400 ft 040° 040° 6 kt METAR EFJY 201120Z AUTO 04006KT 010V070 9999 BKN024 BKN049 21/16 Q1011
13:50
V
22 °C 10 km+ - 030° 030° 5 kt METAR EFJY 201050Z AUTO 03005KT 320V070 9999 FEW025 //////CB 22/15 Q1011
13:20
V
21 °C 10 km+ 3.900 ft 360° 360° 7 kt METAR EFJY 201020Z AUTO 36007KT 330V030 9999 SCT026 BKN039 21/16 Q1011
12:50
M
20 °C 10 km+ 1.400 ft 010° 010° 9 kt METAR EFJY 200950Z AUTO 01009KT 9999 BKN014 20/16 Q1011
12:20
M
20 °C 10 km+ 1.400 ft 360° 360° 7 kt METAR EFJY 200920Z AUTO 36007KT 330V030 9999 BKN014 20/17 Q1011
11:50
M
19 °C 10 km+ 2.400 ft 360° 360° 6 kt METAR EFJY 200850Z AUTO 36006KT 310V020 9999 FEW008 BKN024 //////CB 19/16 Q1011
11:20
M
19 °C 10 km+ 1.000 ft 350° 350° 6 kt METAR EFJY 200820Z AUTO 35006KT 9999 OVC010 19/16 Q1011
10:50
I
18 °C 10 km+ 800 ft 020° 020° 6 kt METAR EFJY 200750Z AUTO 02006KT 9999 OVC008 18/16 Q1011
10:20
M
18 °C 10 km+ 1.100 ft 040° 040° 6 kt METAR EFJY 200720Z AUTO 04006KT 9999 BKN011 18/16 Q1011
09:50
M
19 °C 10 km+ 1.000 ft 360° 360° 6 kt METAR EFJY 200650Z AUTO 36006KT 330V030 9999 BKN010 19/16 Q1010
09:20
I
19 °C 10 km+ 700 ft 360° 360° 5 kt METAR EFJY 200620Z AUTO 36005KT 330V060 9999 BKN007 19/17 Q1010
08:50
V
18 °C 10 km+ - 360° 360° 5 kt METAR EFJY 200550Z AUTO 36005KT 9999 SCT005 18/16 Q1010
08:20
V
18 °C 10 km+ - 360° 360° 5 kt METAR EFJY 200520Z AUTO 36005KT 9999 SCT004 18/16 Q1010
07:50
V
17 °C 10 km+ - 360° 360° 6 kt METAR EFJY 200450Z AUTO 36006KT 9999 SCT004 17/17 Q1010
07:20
V
17 °C 10 km+ - 010° 010° 5 kt METAR EFJY 200420Z AUTO 01005KT 9999 -SHRA FEW004 17/16 Q1010
06:50
V
16 °C 10 km+ - 360° 360° 5 kt METAR EFJY 200350Z AUTO 36005KT 9999 FEW004 16/16 Q1010
06:20
V
16 °C 10 km+ - 310° 310° 4 kt METAR EFJY 200320Z AUTO 31004KT CAVOK 16/16 Q1010
05:50
V
16 °C 10 km+ - 310° 310° 4 kt METAR EFJY 200250Z AUTO 31004KT 9999 FEW004 16/15 Q1010
05:20
V
15 °C 10 km+ - 300° 300° 3 kt METAR EFJY 200220Z AUTO 30003KT CAVOK 15/15 Q1010
04:50
V
15 °C 10 km+ - 330° 330° 2 kt METAR EFJY 200150Z AUTO 33002KT CAVOK 15/15 Q1010
04:20
V
15 °C 10 km+ - 310° 310° 4 kt METAR EFJY 200120Z AUTO 31004KT CAVOK 15/14 Q1010
03:50
V
14 °C 10 km+ - 320° 320° 2 kt METAR EFJY 200050Z AUTO 32002KT CAVOK 14/14 Q1010
03:20
V
14 °C 10 km+ - 310° 310° 3 kt METAR EFJY 200020Z AUTO 31003KT 9999 FEW017 14/14 Q1010
02:50
V
13 °C 10 km+ - 330° 330° 2 kt METAR EFJY 192350Z AUTO 33002KT CAVOK 13/13 Q1010
02:20
V
14 °C 10 km+ - 350° 350° 2 kt METAR EFJY 192320Z AUTO 35002KT CAVOK 14/14 Q1010
01:50
V
14 °C 10 km+ - 320° 320° 3 kt METAR EFJY 192250Z AUTO 32003KT CAVOK 14/14 Q1010
01:20
V
14 °C 10 km+ - 300° 300° 3 kt METAR EFJY 192220Z AUTO 30003KT CAVOK 14/14 Q1010
00:50
V
15 °C 10 km+ - 310° 310° 3 kt METAR EFJY 192150Z AUTO 31003KT CAVOK 15/14 Q1010
00:20
V
15 °C 10 km+ - 330° 330° 2 kt METAR EFJY 192120Z AUTO 33002KT CAVOK 15/14 Q1010

19 luglio 2024

Tempo Codice Tempo meteorologico Temp. Vista Base nuvolosa Vento METAR/SPECI
23:50
V
15 °C 10 km+ - 290° 290° 4 kt METAR EFJY 192050Z AUTO 29004KT CAVOK 15/14 Q1010
23:20
V
15 °C 10 km+ - 300° 300° 4 kt METAR EFJY 192020Z AUTO 30004KT CAVOK 15/14 Q1010
22:50
V
16 °C 10 km+ - 290° 290° 4 kt METAR EFJY 191950Z AUTO 29004KT 9999 //////CB 16/14 Q1010
22:20
V
16 °C 10 km+ - 290° 290° 3 kt METAR EFJY 191920Z AUTO 29003KT 9999 //////CB 16/15 Q1010
21:50
V
17 °C 10 km+ - 300° 300° 4 kt METAR EFJY 191850Z AUTO 30004KT CAVOK 17/15 Q1010
21:20
V
18 °C 10 km+ - 340° 340° 5 kt METAR EFJY 191820Z AUTO 34005KT CAVOK 18/15 Q1010
20:50
V
19 °C 10 km+ - 310° 310° 6 kt METAR EFJY 191750Z AUTO 31006KT CAVOK 19/16 Q1009
20:20
V
18 °C 10 km+ - 310° 310° 3 kt METAR EFJY 191720Z AUTO 31003KT 280V010 9999 FEW019 18/16 Q1009
19:50
V
19 °C 10 km+ - Var Var 2 kt METAR EFJY 191650Z AUTO VRB02KT 9999 FEW042 //////CB 19/16 Q1009
19:20
V
17 °C 10 km+ - 290° 290° 3 kt METAR EFJY 191620Z AUTO 29003KT 260V350 9999 VCTS //////CB 17/16 Q1009
18:50
V
19 °C 10 km+ - 360° 360° 4 kt METAR EFJY 191550Z AUTO 36004KT 330V030 9999 //////CB 19/14 Q1009
18:20
V
20 °C 10 km+ - 040° 040° 4 kt METAR EFJY 191520Z AUTO 04004KT 350V060 9999 FEW021 //////CB 20/14 Q1009
17:50
M
20 °C 10 km+ 2.000 ft 360° 360° 6 kt METAR EFJY 191450Z AUTO 36006KT 320V040 9999 BKN020 //////CB 20/16 Q1009
17:20
V
19 °C 10 km+ - 360° 360° 5 kt METAR EFJY 191420Z AUTO 36005KT 330V030 9999 FEW021 19/16 Q1009
16:50
V
19 °C 10 km+ - 350° 350° 7 kt METAR EFJY 191350Z AUTO 35007KT 9999 -RA FEW013 19/16 Q1009
16:20
V
19 °C 10 km+ - 340° 340° 5 kt METAR EFJY 191320Z AUTO 34005KT 9999 //////CB 19/16 Q1009 RETS
15:50
V
18 °C 10 km+ - 320° 320° 5 kt METAR EFJY 191250Z AUTO 32005KT 9999 VCTS //////CB 18/16 Q1009
15:20
V
17 °C 8 km 4.100 ft 300° 300° 6 kt METAR EFJY 191220Z AUTO 30006KT 270V330 8000 SHRA OVC041 //////CB 17/16 Q1010
14:50
I
17 °C 4,3 km 3.100 ft 340° 340° 9 kt METAR EFJY 191150Z AUTO 34009KT 4300 +TSRA BKN031 //////CB 17/15 Q1010
14:20
M
19 °C 10 km+ 2.600 ft 300° 300° 5 kt METAR EFJY 191120Z AUTO 30005KT 240V330 9999 VCTS BKN026 //////CB 19/16 Q1010
13:50
V
19 °C 10 km+ - 300° 300° 5 kt METAR EFJY 191050Z AUTO 30005KT 9999 FEW035 //////CB 19/16 Q1010
13:20
V
19 °C 10 km+ - 320° 320° 3 kt METAR EFJY 191020Z AUTO 32003KT 290V350 9999 //////CB 19/16 Q1010
12:50
V
19 °C 10 km+ 3.100 ft 300° 300° 4 kt METAR EFJY 190950Z AUTO 30004KT 9999 BKN031 //////CB 19/15 Q1009
12:20
M
20 °C 10 km+ 1.900 ft 310° 310° 8 kt METAR EFJY 190920Z AUTO 31008KT 9999 BKN019 //////CB 20/15 Q1009
11:50
V
20 °C 10 km+ - 290° 290° 3 kt METAR EFJY 190850Z AUTO 29003KT 240V030 9999 //////CB 20/14 Q1009
11:20
V
19 °C 10 km+ - 320° 320° 3 kt METAR EFJY 190820Z AUTO 32003KT 250V040 9999 FEW010 19/14 Q1009
10:50
V
18 °C 10 km+ - 310° 310° 3 kt METAR EFJY 190750Z AUTO 31003KT 270V340 9999 FEW036 18/16 Q1009
10:20
V
17 °C 10 km+ - Var Var 1 kt METAR EFJY 190720Z AUTO VRB01KT 9999 FEW006 //////CB 17/15 Q1010
09:50
V
17 °C 10 km+ - Var Var 2 kt METAR EFJY 190650Z AUTO VRB02KT 9999 FEW034 //////CB 17/15 Q1009
09:20
V
17 °C 10 km+ - Var Var 1 kt METAR EFJY 190620Z AUTO VRB01KT 9999 FEW004 //////CB 17/16 Q1010
08:50
V
17 °C 10 km+ 4.300 ft Var Var 2 kt METAR EFJY 190550Z AUTO VRB02KT 9999 SCT003 BKN043 17/16 Q1010
Segnala modifiche